Terminal Aerodrome Forecast
Issued by NWS Louisville, KY

Home | Current Version | Previous Version | Text Only | Print | Product List | Glossary On
Versions: 1 2 3 4 5 6 7 8 9 10 11 12 13 14
855
FTUS43 KLMK 231323 AAA
TAFLEX
TAF AMD
KLEX 231323Z 2313/2412 05013G23KT P6SM VCSH OVC023
     FM232300 05010KT P6SM VCSH BKN045=

USA.gov is the U.S. government's official web portal to all federal, state and local government web resources and services.